»·PEaware :: ACA8315 CYYC-KPDX

ACA8315 :: CYYC-KPDX

FLIGHT INFORMATION

Flight Status: Arrived
Operator:
Air Canada
More flights by this operator :: More flights under this callsign
Pilot: Brogan Lopez (12398)
Aircraft: BOEING 737-300
(B733)
More flights by this aircraft type
Origin: CYYC Calgary Intl
Canada
Destination: KPDX Portland Intl
United States
More flights between these airports :: More routes between these airports
Route: DUMRA Q890 ROPLA GEG JORAD HHOOD3
File this flight plan on PilotEdge
Remarks:
Altitude:
(Current/Filed)
36,000ft
Speed:
(Current/Filed)
427kts
Departed: 15-Jun-17 01:36 PM
Arrived: 15-Jun-17 03:20 PM
Distance/Time
Traveled:
476nm/1:44
Distance/Time
To Go:
Arrived

Flight Plot

Page will automatically refresh every two minutes.

Flight plan parsing failed; only flown route is shown


Map Options




Map Legend


Flown Route
Filed Route
Departure Airport
Arrival Airport
Navaid (VOR, NDB)
Fix

Horizontal Profiles

Position Reports

Time Latitude Longitude Heading Altitude Ground
Speed
15-Jun-17 13:16 51.129815 -114.012732 127 3564ft 0kts
15-Jun-17 13:17 51.129815 -114.012732 127 3564ft 0kts
15-Jun-17 13:18 51.129815 -114.012732 127 3564ft 0kts
15-Jun-17 13:19 51.129815 -114.012732 127 3564ft 0kts
15-Jun-17 13:20 51.129815 -114.012732 127 3564ft 0kts
15-Jun-17 13:21 51.129815 -114.012732 127 3564ft 0kts
15-Jun-17 13:23 51.129815 -114.012732 127 3564ft 0kts
15-Jun-17 13:23 51.129815 -114.012732 127 3564ft 0kts
15-Jun-17 13:24 51.129815 -114.012732 127 3564ft 0kts
15-Jun-17 13:25 51.129815 -114.012732 127 3564ft 0kts
15-Jun-17 13:26 51.129815 -114.012732 127 3564ft 0kts
15-Jun-17 13:27 51.129815 -114.012732 127 3564ft 0kts
15-Jun-17 13:28 51.129815 -114.012732 127 3564ft 0kts
15-Jun-17 13:29 51.129815 -114.012732 127 3564ft 0kts
15-Jun-17 13:30 51.129815 -114.012732 127 3564ft 0kts
15-Jun-17 13:31 51.129815 -114.012732 127 3564ft 0kts
15-Jun-17 13:32 51.130146 -114.013405 128 3564ft 0kts
15-Jun-17 13:33 51.130314 -114.013745 124 3564ft 0kts
15-Jun-17 13:34 51.130314 -114.013745 124 3564ft 0kts
15-Jun-17 13:35 51.130313 -114.013743 124 3564ft 0kts
15-Jun-17 13:36 51.131187 -114.013898 335 3564ft 10kts
15-Jun-17 13:37 51.130977 -114.018841 267 3564ft 13kts
15-Jun-17 13:38 51.126236 -114.021315 178 3564ft 83kts
15-Jun-17 13:39 51.088529 -114.022114 181 4934ft 161kts
15-Jun-17 13:40 51.041764 -114.030243 204 6952ft 199kts
15-Jun-17 13:41 50.986869 -114.065369 198 8625ft 268kts
15-Jun-17 13:42 50.912321 -114.104589 199 10939ft 320kts
15-Jun-17 13:43 50.835642 -114.145222 199 13721ft 339kts
15-Jun-17 13:44 50.749041 -114.191036 200 16823ft 352kts
15-Jun-17 13:45 50.659265 -114.238349 200 19615ft 366kts
15-Jun-17 13:46 50.565140 -114.286893 200 22152ft 378kts
15-Jun-17 13:47 50.473080 -114.334280 201 24316ft 390kts
15-Jun-17 13:48 50.377670 -114.382985 201 26315ft 401kts
15-Jun-17 13:49 50.292550 -114.426380 201 27924ft 410kts
15-Jun-17 13:50 50.195680 -114.475533 201 29866ft 412kts
15-Jun-17 13:51 50.094889 -114.526491 202 32038ft 404kts
15-Jun-17 13:52 49.992185 -114.578127 202 33895ft 399kts
15-Jun-17 13:53 49.892697 -114.628013 202 35443ft 396kts
15-Jun-17 13:54 49.802925 -114.672870 202 36014ft 404kts
15-Jun-17 13:55 49.699134 -114.725682 210 35986ft 395kts
15-Jun-17 13:56 49.622217 -114.831074 226 36024ft 390kts
15-Jun-17 13:57 49.547607 -114.938762 226 36037ft 388kts
15-Jun-17 13:58 49.470076 -115.049692 225 36048ft 389kts
15-Jun-17 13:59 49.393761 -115.159082 224 36047ft 390kts
15-Jun-17 14:00 49.315733 -115.270121 224 36048ft 390kts
15-Jun-17 14:01 49.237308 -115.380794 224 36047ft 390kts
15-Jun-17 14:02 49.160527 -115.488656 224 36048ft 390kts
15-Jun-17 14:03 49.081872 -115.598651 224 36058ft 387kts
15-Jun-17 14:04 49.004994 -115.705690 226 36056ft 380kts
15-Jun-17 14:05 48.928291 -115.812028 227 36075ft 378kts
15-Jun-17 14:06 48.852113 -115.917200 227 36096ft 379kts
15-Jun-17 14:07 48.776386 -116.021245 229 36091ft 370kts
15-Jun-17 14:08 48.701376 -116.124298 229 36077ft 370kts
15-Jun-17 14:09 48.626004 -116.228158 228 36109ft 373kts
15-Jun-17 14:10 48.549548 -116.331951 228 36100ft 373kts
15-Jun-17 14:11 48.473441 -116.434807 228 36103ft 373kts
15-Jun-17 14:12 48.397272 -116.536921 229 36096ft 371kts
15-Jun-17 14:13 48.321478 -116.638430 229 36095ft 372kts
15-Jun-17 14:14 48.245637 -116.739636 228 36098ft 373kts
15-Jun-17 14:15 48.171711 -116.837875 228 36086ft 369kts
15-Jun-17 14:16 48.096856 -116.936987 229 36108ft 372kts
15-Jun-17 14:17 48.022520 -117.034971 229 36113ft 367kts
15-Jun-17 14:18 47.947533 -117.134063 229 36104ft 362kts
15-Jun-17 14:19 47.873023 -117.232351 228 36098ft 362kts
15-Jun-17 14:20 47.797961 -117.330176 228 36112ft 364kts
15-Jun-17 14:21 47.723391 -117.426913 228 36100ft 363kts
15-Jun-17 14:22 47.648240 -117.524017 228 36077ft 360kts
15-Jun-17 14:23 47.573637 -117.620075 228 36080ft 363kts
15-Jun-17 14:24 47.508707 -117.730372 236 36089ft 360kts
15-Jun-17 14:25 47.446736 -117.843758 237 36081ft 360kts
15-Jun-17 14:26 47.384660 -117.956403 237 36071ft 357kts
15-Jun-17 14:27 47.322491 -118.069294 236 36082ft 360kts
15-Jun-17 14:28 47.260517 -118.182713 236 36087ft 360kts
15-Jun-17 14:29 47.198036 -118.295539 236 36075ft 358kts
15-Jun-17 14:30 47.135673 -118.407431 236 36061ft 359kts
15-Jun-17 14:31 47.077463 -118.511426 236 36050ft 359kts
15-Jun-17 14:32 47.017600 -118.617962 236 36037ft 360kts
15-Jun-17 14:33 46.955835 -118.727451 237 36034ft 359kts
15-Jun-17 14:34 46.893472 -118.837564 238 36033ft 358kts
15-Jun-17 14:35 46.831736 -118.946095 238 36009ft 349kts
15-Jun-17 14:36 46.772737 -119.049474 238 36015ft 346kts
15-Jun-17 14:37 46.713154 -119.154476 238 36010ft 346kts
15-Jun-17 14:38 46.653162 -119.259348 238 36005ft 346kts
15-Jun-17 14:39 46.593190 -119.363252 238 36001ft 346kts
15-Jun-17 14:40 46.532999 -119.467109 238 36002ft 346kts
15-Jun-17 14:41 46.473017 -119.570206 238 35999ft 346kts
15-Jun-17 14:42 46.412084 -119.674140 238 36003ft 346kts
15-Jun-17 14:43 46.351286 -119.777710 238 36001ft 346kts
15-Jun-17 14:44 46.289868 -119.882084 238 36000ft 346kts
15-Jun-17 14:45 46.228131 -119.986611 238 36001ft 346kts
15-Jun-17 14:46 46.165957 -120.091488 238 34964ft 346kts
15-Jun-17 14:47 46.107126 -120.191684 237 33314ft 349kts
15-Jun-17 14:48 46.044515 -120.296688 236 31665ft 356kts
15-Jun-17 14:49 45.980732 -120.403051 235 30016ft 362kts
15-Jun-17 14:50 45.915674 -120.511071 235 28350ft 361kts
15-Jun-17 14:51 45.852622 -120.615381 234 26690ft 351kts
15-Jun-17 14:52 45.803677 -120.728746 250 24850ft 337kts
15-Jun-17 14:53 45.770355 -120.850051 250 22882ft 330kts
15-Jun-17 14:54 45.737589 -120.969266 249 20911ft 324kts
15-Jun-17 14:55 45.705931 -121.083926 248 18971ft 315kts
15-Jun-17 14:56 45.676014 -121.192809 247 17086ft 298kts
15-Jun-17 14:57 45.646763 -121.298094 247 15277ft 289kts
15-Jun-17 14:58 45.617598 -121.402306 246 13730ft 286kts
15-Jun-17 14:59 45.589210 -121.503189 246 12408ft 283kts
15-Jun-17 15:00 45.561210 -121.602914 247 11446ft 275kts
15-Jun-17 15:01 45.534612 -121.697425 247 10982ft 259kts
15-Jun-17 15:02 45.532511 -121.797248 270 10648ft 260kts
15-Jun-17 15:03 45.536066 -121.896612 263 9972ft 253kts
15-Jun-17 15:04 45.545748 -121.994974 280 9783ft 285kts
15-Jun-17 15:05 45.567113 -122.096718 281 9016ft 285kts
15-Jun-17 15:06 45.586784 -122.188899 280 9011ft 276kts
15-Jun-17 15:07 45.606786 -122.285065 279 9012ft 278kts
15-Jun-17 15:08 45.627751 -122.387668 280 8098ft 279kts
15-Jun-17 15:09 45.650060 -122.482980 292 7095ft 270kts
15-Jun-17 15:10 45.678817 -122.562502 293 6137ft 252kts
15-Jun-17 15:11 45.708339 -122.644395 294 5174ft 238kts
15-Jun-17 15:12 45.734951 -122.718214 293 4981ft 231kts
15-Jun-17 15:13 45.760369 -122.788648 292 5015ft 207kts
15-Jun-17 15:14 45.759681 -122.851425 216 4779ft 182kts
15-Jun-17 15:15 45.718540 -122.875383 147 3603ft 177kts
15-Jun-17 15:17 45.680317 -122.833900 135 2944ft 175kts
15-Jun-17 15:18 45.654949 -122.777236 120 2550ft 182kts
15-Jun-17 15:19 45.634627 -122.723351 119 1638ft 140kts
15-Jun-17 15:20 45.617864 -122.679944 120 951ft 126kts
15-Jun-17 15:21 45.601179 -122.637256 119 338ft 125kts
15-Jun-17 15:22 45.586983 -122.600493 119 36ft 43kts
15-Jun-17 15:23 45.586674 -122.597078 34 36ft 0kts
15-Jun-17 15:24 45.587033 -122.597427 300 36ft 9kts
15-Jun-17 15:25 45.589528 -122.602054 21 36ft 15kts
15-Jun-17 15:26 45.590461 -122.596941 117 36ft 19kts
15-Jun-17 15:27 45.590472 -122.595050 29 36ft 0kts

Navigation Log

Ident Type
Flight plan parsing failed, navigation log unavailable